Terminal Aerodrome Forecast
Issued by NWS

Home | Current Version | Previous Version | Text Only | Print | Product List | Glossary On
Versions: 1 2 3 4 5 6 7 8 9 10 11 12 13 14 15 16 17
000
FTUS44 KCRP 302332
TAFALI
TAF
KALI 302332Z 3100/3124 13012KT P6SM FEW040 BKN250
     FM310600 14005KT P6SM SCT018 BKN250
      TEMPO 3109/3113 BKN015
     FM311600 15013KT P6SM VCTS BKN035CB PROB30 3118/3124 TSRA
      BKN025CB=

USA.gov is the U.S. government's official web portal to all federal, state and local government web resources and services.